sensor_id;sensor_type;location;lat;lon;timestamp;pressure;altitude;pressure_sealevel;temperature;humidity
39411;BME280;26579;43.238;23.124;2023-04-01T00:01:31;95976.47;;;16.59;37.03
39411;BME280;26579;43.238;23.124;2023-04-01T00:03:57;95952.41;;;16.55;35.91
39411;BME280;26579;43.238;23.124;2023-04-01T00:06:23;95956.16;;;16.67;35.42
39411;BME280;26579;43.238;23.124;2023-04-01T00:08:49;95957.34;;;16.65;35.04
39411;BME280;26579;43.238;23.124;2023-04-01T00:11:15;95958.84;;;16.74;34.55
39411;BME280;26579;43.238;23.124;2023-04-01T00:13:41;95945.53;;;16.75;34.84
39411;BME280;26579;43.238;23.124;2023-04-01T00:16:08;95935.78;;;16.91;34.98
39411;BME280;26579;43.238;23.124;2023-04-01T00:18:34;95946.34;;;16.97;34.98
39411;BME280;26579;43.238;23.124;2023-04-01T00:21:00;95946.75;;;17.01;34.50
39411;BME280;26579;43.238;23.124;2023-04-01T00:23:25;95936.06;;;17.03;34.22
39411;BME280;26579;43.238;23.124;2023-04-01T00:25:51;95936.25;;;17.01;34.02
39411;BME280;26579;43.238;23.124;2023-04-01T00:28:19;95938.69;;;17.03;33.45
39411;BME280;26579;43.238;23.124;2023-04-01T00:30:48;95919.03;;;16.98;33.79
39411;BME280;26579;43.238;23.124;2023-04-01T00:33:13;95928.19;;;17.03;33.82
39411;BME280;26579;43.238;23.124;2023-04-01T00:35:39;95921.47;;;17.00;33.62
39411;BME280;26579;43.238;23.124;2023-04-01T00:38:05;95920.72;;;17.06;33.15
39411;BME280;26579;43.238;23.124;2023-04-01T00:40:34;95922.72;;;17.04;33.07
39411;BME280;26579;43.238;23.124;2023-04-01T00:43:02;95909.81;;;17.09;33.30
39411;BME280;26579;43.238;23.124;2023-04-01T00:45:36;95917.31;;;17.12;33.36
39411;BME280;26579;43.238;23.124;2023-04-01T00:48:04;95918.72;;;17.08;33.75
39411;BME280;26579;43.238;23.124;2023-04-01T00:50:32;95913.47;;;17.08;33.54
39411;BME280;26579;43.238;23.124;2023-04-01T00:53:00;95915.50;;;17.13;33.29
39411;BME280;26579;43.238;23.124;2023-04-01T00:55:27;95898.94;;;17.19;32.75
39411;BME280;26579;43.238;23.124;2023-04-01T00:57:55;95889.41;;;17.11;32.66
39411;BME280;26579;43.238;23.124;2023-04-01T01:00:22;95872.38;;;17.07;32.66
39411;BME280;26579;43.238;23.124;2023-04-01T01:02:50;95867.72;;;17.03;33.01
39411;BME280;26579;43.238;23.124;2023-04-01T01:05:16;95870.97;;;17.05;33.21
39411;BME280;26579;43.238;23.124;2023-04-01T01:10:34;95903.78;;;17.15;33.54
39411;BME280;26579;43.238;23.124;2023-04-01T01:15:46;95883.16;;;17.19;32.67
39411;BME280;26579;43.238;23.124;2023-04-01T01:18:43;95871.03;;;17.18;32.43
39411;BME280;26579;43.238;23.124;2023-04-01T01:27:04;95842.88;;;17.12;32.45
39411;BME280;26579;43.238;23.124;2023-04-01T01:37:44;95838.44;;;17.12;31.45
39411;BME280;26579;43.238;23.124;2023-04-01T01:40:13;95818.16;;;17.06;31.81
39411;BME280;26579;43.238;23.124;2023-04-01T01:42:45;95835.81;;;17.12;31.32
39411;BME280;26579;43.238;23.124;2023-04-01T01:45:14;95842.13;;;17.25;31.37
39411;BME280;26579;43.238;23.124;2023-04-01T01:47:42;95840.53;;;17.24;31.13
39411;BME280;26579;43.238;23.124;2023-04-01T01:50:09;95843.19;;;17.30;31.36
39411;BME280;26579;43.238;23.124;2023-04-01T01:52:36;95834.03;;;17.19;30.83
39411;BME280;26579;43.238;23.124;2023-04-01T01:55:01;95824.50;;;17.18;30.74
39411;BME280;26579;43.238;23.124;2023-04-01T01:57:38;95818.06;;;17.21;30.37
39411;BME280;26579;43.238;23.124;2023-04-01T02:00:10;95827.94;;;17.19;30.42
39411;BME280;26579;43.238;23.124;2023-04-01T02:02:44;95823.53;;;17.19;30.44
39411;BME280;26579;43.238;23.124;2023-04-01T02:05:14;95827.59;;;17.22;30.68
39411;BME280;26579;43.238;23.124;2023-04-01T02:07:43;95810.56;;;17.18;30.70
39411;BME280;26579;43.238;23.124;2023-04-01T02:10:11;95807.91;;;17.18;30.81
39411;BME280;26579;43.238;23.124;2023-04-01T02:12:37;95794.13;;;17.09;30.62
39411;BME280;26579;43.238;23.124;2023-04-01T02:15:09;95799.38;;;17.09;31.61
39411;BME280;26579;43.238;23.124;2023-04-01T02:17:41;95805.00;;;17.00;31.39
39411;BME280;26579;43.238;23.124;2023-04-01T02:20:13;95827.06;;;17.05;31.26
39411;BME280;26579;43.238;23.124;2023-04-01T02:22:45;95828.72;;;17.13;31.21
39411;BME280;26579;43.238;23.124;2023-04-01T02:25:15;95831.16;;;17.14;31.44
39411;BME280;26579;43.238;23.124;2023-04-01T02:27:43;95844.72;;;17.11;31.19
39411;BME280;26579;43.238;23.124;2023-04-01T02:30:11;95842.88;;;17.12;31.18
39411;BME280;26579;43.238;23.124;2023-04-01T02:32:38;95847.31;;;17.05;31.39
39411;BME280;26579;43.238;23.124;2023-04-01T02:35:12;95845.66;;;17.04;31.42
39411;BME280;26579;43.238;23.124;2023-04-01T02:37:40;95848.66;;;17.01;31.62
39411;BME280;26579;43.238;23.124;2023-04-01T02:40:07;95845.25;;;17.00;32.20
39411;BME280;26579;43.238;23.124;2023-04-01T02:42:34;95845.19;;;16.93;32.52
39411;BME280;26579;43.238;23.124;2023-04-01T02:44:59;95844.56;;;16.91;32.88
39411;BME280;26579;43.238;23.124;2023-04-01T02:47:25;95841.31;;;16.89;33.40
39411;BME280;26579;43.238;23.124;2023-04-01T02:49:51;95844.16;;;16.88;33.40
39411;BME280;26579;43.238;23.124;2023-04-01T02:52:17;95835.13;;;16.75;33.76
39411;BME280;26579;43.238;23.124;2023-04-01T02:54:42;95868.66;;;16.95;33.93
39411;BME280;26579;43.238;23.124;2023-04-01T02:57:08;95869.63;;;16.87;34.38
39411;BME280;26579;43.238;23.124;2023-04-01T02:59:34;95871.31;;;16.73;34.36
39411;BME280;26579;43.238;23.124;2023-04-01T03:02:00;95868.31;;;16.77;34.53
39411;BME280;26579;43.238;23.124;2023-04-01T03:04:25;95869.19;;;16.84;34.53
39411;BME280;26579;43.238;23.124;2023-04-01T03:06:51;95884.63;;;16.93;34.38
39411;BME280;26579;43.238;23.124;2023-04-01T03:09:16;95880.56;;;16.91;35.00
39411;BME280;26579;43.238;23.124;2023-04-01T03:11:43;95863.34;;;16.88;34.79
39411;BME280;26579;43.238;23.124;2023-04-01T03:14:09;95867.72;;;16.81;35.38
39411;BME280;26579;43.238;23.124;2023-04-01T03:16:34;95862.78;;;16.71;35.51
39411;BME280;26579;43.238;23.124;2023-04-01T03:19:00;95870.50;;;16.73;35.47
39411;BME280;26579;43.238;23.124;2023-04-01T03:21:26;95878.97;;;16.75;35.75
39411;BME280;26579;43.238;23.124;2023-04-01T03:23:51;95869.31;;;16.75;36.29
39411;BME280;26579;43.238;23.124;2023-04-01T03:26:18;95857.91;;;16.68;36.47
39411;BME280;26579;43.238;23.124;2023-04-01T03:28:43;95859.16;;;16.72;36.64
39411;BME280;26579;43.238;23.124;2023-04-01T03:31:10;95853.88;;;16.72;37.07
39411;BME280;26579;43.238;23.124;2023-04-01T03:33:42;95858.16;;;16.73;37.15
39411;BME280;26579;43.238;23.124;2023-04-01T03:36:08;95850.28;;;16.73;37.61
39411;BME280;26579;43.238;23.124;2023-04-01T03:38:34;95864.50;;;16.79;37.59
39411;BME280;26579;43.238;23.124;2023-04-01T03:41:00;95861.28;;;16.84;38.00
39411;BME280;26579;43.238;23.124;2023-04-01T03:43:26;95867.03;;;16.72;38.57
39411;BME280;26579;43.238;23.124;2023-04-01T03:45:52;95856.03;;;16.62;39.27
39411;BME280;26579;43.238;23.124;2023-04-01T03:48:18;95870.03;;;16.69;39.27
39411;BME280;26579;43.238;23.124;2023-04-01T03:50:44;95863.13;;;16.62;39.01
39411;BME280;26579;43.238;23.124;2023-04-01T03:53:10;95871.81;;;16.62;38.83
39411;BME280;26579;43.238;23.124;2023-04-01T03:55:39;95844.91;;;16.60;38.61
39411;BME280;26579;43.238;23.124;2023-04-01T03:58:06;95842.84;;;16.56;39.25
39411;BME280;26579;43.238;23.124;2023-04-01T04:00:33;95854.81;;;16.58;39.01
39411;BME280;26579;43.238;23.124;2023-04-01T04:02:59;95814.78;;;16.35;39.48
39411;BME280;26579;43.238;23.124;2023-04-01T04:05:30;95853.00;;;16.59;39.47
39411;BME280;26579;43.238;23.124;2023-04-01T04:07:56;95849.16;;;16.61;39.63
39411;BME280;26579;43.238;23.124;2023-04-01T04:10:22;95829.09;;;16.53;39.55
39411;BME280;26579;43.238;23.124;2023-04-01T04:12:49;95829.91;;;16.54;39.98
39411;BME280;26579;43.238;23.124;2023-04-01T04:15:15;95819.38;;;16.54;40.25
39411;BME280;26579;43.238;23.124;2023-04-01T04:17:41;95810.19;;;16.43;41.15
39411;BME280;26579;43.238;23.124;2023-04-01T04:20:07;95820.28;;;16.40;41.48
39411;BME280;26579;43.238;23.124;2023-04-01T04:22:33;95811.53;;;16.33;41.57
39411;BME280;26579;43.238;23.124;2023-04-01T04:24:59;95802.28;;;16.15;42.07
39411;BME280;26579;43.238;23.124;2023-04-01T04:27:25;95790.84;;;16.01;42.62
39411;BME280;26579;43.238;23.124;2023-04-01T04:29:59;95803.44;;;16.06;42.65
39411;BME280;26579;43.238;23.124;2023-04-01T04:32:25;95781.34;;;16.00;42.97
39411;BME280;26579;43.238;23.124;2023-04-01T04:34:51;95774.72;;;16.04;42.90
39411;BME280;26579;43.238;23.124;2023-04-01T04:37:18;95785.16;;;15.98;42.99
39411;BME280;26579;43.238;23.124;2023-04-01T04:39:43;95780.56;;;16.00;43.41
39411;BME280;26579;43.238;23.124;2023-04-01T04:42:09;95765.03;;;15.83;42.68
39411;BME280;26579;43.238;23.124;2023-04-01T04:44:35;95769.91;;;15.87;42.99
39411;BME280;26579;43.238;23.124;2023-04-01T04:47:01;95768.09;;;15.87;42.48
39411;BME280;26579;43.238;23.124;2023-04-01T04:49:27;95763.66;;;15.88;42.28
39411;BME280;26579;43.238;23.124;2023-04-01T04:51:53;95760.59;;;15.84;42.02
39411;BME280;26579;43.238;23.124;2023-04-01T04:54:21;95745.06;;;15.82;42.40
39411;BME280;26579;43.238;23.124;2023-04-01T04:56:53;95746.47;;;15.85;40.71
39411;BME280;26579;43.238;23.124;2023-04-01T04:59:20;95738.84;;;15.90;40.28
39411;BME280;26579;43.238;23.124;2023-04-01T05:02:01;95743.91;;;15.92;40.96
39411;BME280;26579;43.238;23.124;2023-04-01T05:04:27;95742.91;;;15.93;41.01
39411;BME280;26579;43.238;23.124;2023-04-01T05:06:53;95740.13;;;15.94;41.07
39411;BME280;26579;43.238;23.124;2023-04-01T05:09:19;95731.28;;;16.02;41.84
39411;BME280;26579;43.238;23.124;2023-04-01T05:11:44;95732.47;;;15.99;41.62
39411;BME280;26579;43.238;23.124;2023-04-01T05:14:17;95747.53;;;16.12;41.49
39411;BME280;26579;43.238;23.124;2023-04-01T05:16:51;95751.41;;;16.16;41.29
39411;BME280;26579;43.238;23.124;2023-04-01T05:19:16;95741.16;;;16.21;42.15
39411;BME280;26579;43.238;23.124;2023-04-01T05:21:42;95723.09;;;16.12;42.48
39411;BME280;26579;43.238;23.124;2023-04-01T05:24:08;95711.75;;;16.11;41.48
39411;BME280;26579;43.238;23.124;2023-04-01T05:26:35;95711.25;;;16.22;41.57
39411;BME280;26579;43.238;23.124;2023-04-01T05:29:00;95710.44;;;16.22;41.87
39411;BME280;26579;43.238;23.124;2023-04-01T05:31:26;95705.09;;;16.09;41.99
39411;BME280;26579;43.238;23.124;2023-04-01T05:33:52;95691.53;;;16.05;41.87
39411;BME280;26579;43.238;23.124;2023-04-01T05:36:18;95710.56;;;16.14;41.47
39411;BME280;26579;43.238;23.124;2023-04-01T05:38:44;95702.31;;;16.17;41.63
39411;BME280;26579;43.238;23.124;2023-04-01T05:41:12;95707.56;;;16.17;42.24
39411;BME280;26579;43.238;23.124;2023-04-01T05:43:42;95686.91;;;16.07;43.58
39411;BME280;26579;43.238;23.124;2023-04-01T05:46:27;95702.91;;;16.12;43.62
39411;BME280;26579;43.238;23.124;2023-04-01T05:48:58;95699.00;;;16.08;45.25
39411;BME280;26579;43.238;23.124;2023-04-01T05:51:25;95699.53;;;15.97;45.13
39411;BME280;26579;43.238;23.124;2023-04-01T05:53:51;95710.22;;;15.95;45.90
39411;BME280;26579;43.238;23.124;2023-04-01T05:56:18;95708.03;;;15.99;44.69
39411;BME280;26579;43.238;23.124;2023-04-01T05:58:51;95706.81;;;15.95;46.05
39411;BME280;26579;43.238;23.124;2023-04-01T06:01:19;95703.97;;;15.96;45.07
39411;BME280;26579;43.238;23.124;2023-04-01T06:03:49;95693.25;;;15.91;45.36
39411;BME280;26579;43.238;23.124;2023-04-01T06:06:53;95702.34;;;15.95;44.67
39411;BME280;26579;43.238;23.124;2023-04-01T06:09:32;95665.41;;;15.69;45.05
39411;BME280;26579;43.238;23.124;2023-04-01T06:23:13;95701.22;;;16.04;44.86
39411;BME280;26579;43.238;23.124;2023-04-01T06:26:03;95699.97;;;16.00;44.66
39411;BME280;26579;43.238;23.124;2023-04-01T06:45:14;95684.19;;;16.50;44.94
39411;BME280;26579;43.238;23.124;2023-04-01T06:54:32;95661.72;;;16.47;43.33
39411;BME280;26579;43.238;23.124;2023-04-01T06:57:43;95673.06;;;16.55;43.22
39411;BME280;26579;43.238;23.124;2023-04-01T07:05:35;95670.31;;;16.69;41.09
39411;BME280;26579;43.238;23.124;2023-04-01T07:08:11;95675.41;;;16.71;40.98
39411;BME280;26579;43.238;23.124;2023-04-01T07:16:18;95673.19;;;16.74;40.27
39411;BME280;26579;43.238;23.124;2023-04-01T07:22:29;95674.19;;;16.67;40.07
39411;BME280;26579;43.238;23.124;2023-04-01T07:25:24;95672.88;;;16.84;38.91
39411;BME280;26579;43.238;23.124;2023-04-01T07:28:12;95674.06;;;16.82;39.52
39411;BME280;26579;43.238;23.124;2023-04-01T07:30:53;95670.28;;;16.91;38.80
39411;BME280;26579;43.238;23.124;2023-04-01T07:42:09;95694.56;;;17.00;38.47
39411;BME280;26579;43.238;23.124;2023-04-01T07:50:40;95678.72;;;17.41;38.06
39411;BME280;26579;43.238;23.124;2023-04-01T07:53:38;95682.78;;;17.57;37.69
39411;BME280;26579;43.238;23.124;2023-04-01T08:02:38;95674.38;;;17.95;36.60
39411;BME280;26579;43.238;23.124;2023-04-01T08:04:58;95670.09;;;18.00;36.54
39411;BME280;26579;43.238;23.124;2023-04-01T08:07:56;95661.41;;;18.13;36.16
39411;BME280;26579;43.238;23.124;2023-04-01T08:11:03;95672.13;;;18.12;36.92
39411;BME280;26579;43.238;23.124;2023-04-01T08:14:03;95667.44;;;17.60;39.48
39411;BME280;26579;43.238;23.124;2023-04-01T08:20:10;95682.16;;;17.28;40.83
39411;BME280;26579;43.238;23.124;2023-04-01T08:22:39;95665.09;;;17.11;42.61
39411;BME280;26579;43.238;23.124;2023-04-01T08:25:21;95665.28;;;17.16;41.64
39411;BME280;26579;43.238;23.124;2023-04-01T08:28:16;95671.97;;;17.12;42.50
39411;BME280;26579;43.238;23.124;2023-04-01T08:31:05;95667.09;;;17.09;43.27
39411;BME280;26579;43.238;23.124;2023-04-01T08:33:33;95665.44;;;17.01;44.40
39411;BME280;26579;43.238;23.124;2023-04-01T08:38:57;95678.38;;;16.96;44.11
39411;BME280;26579;43.238;23.124;2023-04-01T08:48:06;95668.91;;;16.32;45.89
39411;BME280;26579;43.238;23.124;2023-04-01T08:56:03;95664.72;;;15.67;49.65
39411;BME280;26579;43.238;23.124;2023-04-01T09:02:16;95669.72;;;15.61;50.18
39411;BME280;26579;43.238;23.124;2023-04-01T09:21:46;95664.22;;;15.71;51.85
39411;BME280;26579;43.238;23.124;2023-04-01T09:29:49;95645.81;;;16.56;51.61
39411;BME280;26579;43.238;23.124;2023-04-01T09:32:42;95645.34;;;16.80;50.34
39411;BME280;26579;43.238;23.124;2023-04-01T09:35:42;95629.63;;;16.93;50.67
39411;BME280;26579;43.238;23.124;2023-04-01T09:40:57;95636.41;;;17.36;49.73
39411;BME280;26579;43.238;23.124;2023-04-01T09:44:01;95635.63;;;17.42;49.12
39411;BME280;26579;43.238;23.124;2023-04-01T09:52:24;95617.25;;;18.22;48.22
39411;BME280;26579;43.238;23.124;2023-04-01T10:04:14;95593.13;;;18.18;47.09
39411;BME280;26579;43.238;23.124;2023-04-01T10:10:00;95601.84;;;18.05;47.05
39411;BME280;26579;43.238;23.124;2023-04-01T10:12:56;95604.50;;;17.99;47.05
39411;BME280;26579;43.238;23.124;2023-04-01T10:27:07;95622.28;;;17.43;50.08
39411;BME280;26579;43.238;23.124;2023-04-01T10:49:48;95564.00;;;17.60;55.70
39411;BME280;26579;43.238;23.124;2023-04-01T11:05:04;95572.50;;;16.67;58.26
39411;BME280;26579;43.238;23.124;2023-04-01T11:16:23;95579.38;;;16.27;59.74
39411;BME280;26579;43.238;23.124;2023-04-01T11:30:33;95607.47;;;16.26;61.93
39411;BME280;26579;43.238;23.124;2023-04-01T11:41:58;95660.69;;;16.42;62.52
39411;BME280;26579;43.238;23.124;2023-04-01T11:50:37;95693.72;;;16.01;61.17
39411;BME280;26579;43.238;23.124;2023-04-01T11:53:44;95679.38;;;15.76;59.17
39411;BME280;26579;43.238;23.124;2023-04-01T12:01:12;95695.22;;;14.80;58.26
39411;BME280;26579;43.238;23.124;2023-04-01T12:03:56;95696.88;;;14.66;60.42
39411;BME280;26579;43.238;23.124;2023-04-01T12:20:44;95706.44;;;14.07;61.10
39411;BME280;26579;43.238;23.124;2023-04-01T12:29:05;95616.94;;;14.11;63.95
39411;BME280;26579;43.238;23.124;2023-04-01T12:37:21;95558.50;;;14.70;62.19
39411;BME280;26579;43.238;23.124;2023-04-01T12:45:53;95522.44;;;15.93;61.24
39411;BME280;26579;43.238;23.124;2023-04-01T13:04:50;95468.88;;;17.30;52.54
39411;BME280;26579;43.238;23.124;2023-04-01T13:15:37;95452.97;;;18.09;43.92
39411;BME280;26579;43.238;23.124;2023-04-01T13:18:16;95459.22;;;18.15;43.39
39411;BME280;26579;43.238;23.124;2023-04-01T13:29:36;95442.44;;;18.09;42.45
39411;BME280;26579;43.238;23.124;2023-04-01T13:54:24;95359.31;;;18.84;39.00
39411;BME280;26579;43.238;23.124;2023-04-01T14:10:29;95310.91;;;18.21;40.57
39411;BME280;26579;43.238;23.124;2023-04-01T14:13:06;95323.66;;;18.18;39.73
39411;BME280;26579;43.238;23.124;2023-04-01T14:15:47;95348.31;;;17.92;39.75
39411;BME280;26579;43.238;23.124;2023-04-01T14:20:59;95352.41;;;17.74;38.67
39411;BME280;26579;43.238;23.124;2023-04-01T14:32:06;95358.25;;;17.90;38.13
39411;BME280;26579;43.238;23.124;2023-04-01T14:37:32;95358.59;;;18.38;38.09
39411;BME280;26579;43.238;23.124;2023-04-01T14:40:14;95363.03;;;18.44;37.30
39411;BME280;26579;43.238;23.124;2023-04-01T14:48:34;95406.13;;;18.18;38.60
39411;BME280;26579;43.238;23.124;2023-04-01T14:51:19;95411.50;;;17.98;39.06
39411;BME280;26579;43.238;23.124;2023-04-01T14:53:59;95417.81;;;17.84;38.55
39411;BME280;26579;43.238;23.124;2023-04-01T14:56:43;95422.88;;;17.79;39.39
39411;BME280;26579;43.238;23.124;2023-04-01T14:59:34;95442.94;;;17.67;39.86
39411;BME280;26579;43.238;23.124;2023-04-01T15:13:15;95596.03;;;15.78;50.67
39411;BME280;26579;43.238;23.124;2023-04-01T15:19:04;95627.66;;;14.90;53.28
39411;BME280;26579;43.238;23.124;2023-04-01T15:30:02;95594.78;;;13.84;58.58
39411;BME280;26579;43.238;23.124;2023-04-01T15:36:03;95574.66;;;13.70;57.06
39411;BME280;26579;43.238;23.124;2023-04-01T15:41:24;95584.59;;;13.36;60.59
39411;BME280;26579;43.238;23.124;2023-04-01T15:43:53;95589.69;;;13.53;61.34
39411;BME280;26579;43.238;23.124;2023-04-01T15:57:44;95598.75;;;13.42;57.51
39411;BME280;26579;43.238;23.124;2023-04-01T16:00:49;95599.56;;;13.20;57.86
39411;BME280;26579;43.238;23.124;2023-04-01T16:12:18;95590.19;;;13.33;54.43
39411;BME280;26579;43.238;23.124;2023-04-01T16:17:54;95574.94;;;13.37;58.80
39411;BME280;26579;43.238;23.124;2023-04-01T16:20:49;95597.50;;;13.38;59.54
39411;BME280;26579;43.238;23.124;2023-04-01T16:28:52;95637.44;;;13.24;57.49
39411;BME280;26579;43.238;23.124;2023-04-01T16:31:31;95603.31;;;13.17;54.67
39411;BME280;26579;43.238;23.124;2023-04-01T16:34:21;95640.13;;;13.07;52.90
39411;BME280;26579;43.238;23.124;2023-04-01T16:36:58;95632.34;;;12.99;53.61
39411;BME280;26579;43.238;23.124;2023-04-01T16:40:10;95666.97;;;13.01;53.56
39411;BME280;26579;43.238;23.124;2023-04-01T16:48:14;95713.91;;;12.78;54.16
39411;BME280;26579;43.238;23.124;2023-04-01T16:50:54;95701.69;;;12.71;54.09
39411;BME280;26579;43.238;23.124;2023-04-01T16:53:40;95723.78;;;12.99;57.71
39411;BME280;26579;43.238;23.124;2023-04-01T16:57:01;95724.47;;;12.85;55.59
39411;BME280;26579;43.238;23.124;2023-04-01T17:01:47;95725.72;;;12.97;56.25
39411;BME280;26579;43.238;23.124;2023-04-01T17:21:49;95739.31;;;12.12;55.41
39411;BME280;26579;43.238;23.124;2023-04-01T17:24:31;95755.31;;;12.17;55.44
39411;BME280;26579;43.238;23.124;2023-04-01T17:27:05;95774.88;;;12.30;58.36
39411;BME280;26579;43.238;23.124;2023-04-01T18:00:03;95779.22;;;11.80;51.05
39411;BME280;26579;43.238;23.124;2023-04-01T18:05:27;95766.38;;;11.78;51.90
39411;BME280;26579;43.238;23.124;2023-04-01T18:16:01;95784.91;;;11.59;53.38
39411;BME280;26579;43.238;23.124;2023-04-01T18:23:36;95800.03;;;11.47;53.55
39411;BME280;26579;43.238;23.124;2023-04-01T18:26:13;95801.19;;;11.53;53.67
39411;BME280;26579;43.238;23.124;2023-04-01T18:28:45;95806.19;;;11.38;53.11
39411;BME280;26579;43.238;23.124;2023-04-01T18:31:18;95801.19;;;11.53;53.47
39411;BME280;26579;43.238;23.124;2023-04-01T18:36:51;95816.34;;;11.66;52.24
39411;BME280;26579;43.238;23.124;2023-04-01T18:39:40;95799.59;;;11.68;50.84
39411;BME280;26579;43.238;23.124;2023-04-01T18:42:30;95818.84;;;11.84;51.34
39411;BME280;26579;43.238;23.124;2023-04-01T18:45:14;95799.94;;;11.82;51.72
39411;BME280;26579;43.238;23.124;2023-04-01T18:47:51;95815.41;;;11.83;50.17
39411;BME280;26579;43.238;23.124;2023-04-01T18:50:43;95805.22;;;11.90;49.62
39411;BME280;26579;43.238;23.124;2023-04-01T18:55:55;95816.44;;;11.90;50.61
39411;BME280;26579;43.238;23.124;2023-04-01T18:58:34;95822.28;;;11.92;49.32
39411;BME280;26579;43.238;23.124;2023-04-01T19:01:17;95817.25;;;11.91;47.75
39411;BME280;26579;43.238;23.124;2023-04-01T19:06:30;95810.19;;;11.75;49.12
39411;BME280;26579;43.238;23.124;2023-04-01T19:09:15;95836.66;;;11.88;48.75
39411;BME280;26579;43.238;23.124;2023-04-01T19:12:04;95839.13;;;11.90;48.55
39411;BME280;26579;43.238;23.124;2023-04-01T19:24:11;95855.44;;;12.33;47.74
39411;BME280;26579;43.238;23.124;2023-04-01T19:37:45;95881.00;;;11.96;47.25
39411;BME280;26579;43.238;23.124;2023-04-01T20:04:48;95908.06;;;12.04;54.62
39411;BME280;26579;43.238;23.124;2023-04-01T20:15:37;95922.19;;;11.85;54.31
39411;BME280;26579;43.238;23.124;2023-04-01T20:18:25;95917.59;;;11.78;54.59
39411;BME280;26579;43.238;23.124;2023-04-01T20:21:02;95926.47;;;11.60;56.50
39411;BME280;26579;43.238;23.124;2023-04-01T20:26:27;95927.81;;;11.64;55.83
39411;BME280;26579;43.238;23.124;2023-04-01T20:37:49;95940.94;;;11.54;56.03
39411;BME280;26579;43.238;23.124;2023-04-01T20:40:26;95941.31;;;11.59;55.41
39411;BME280;26579;43.238;23.124;2023-04-01T20:51:09;95943.78;;;11.61;51.86
39411;BME280;26579;43.238;23.124;2023-04-01T20:53:48;95954.75;;;11.72;51.37
39411;BME280;26579;43.238;23.124;2023-04-01T21:18:42;95951.06;;;11.57;53.55
39411;BME280;26579;43.238;23.124;2023-04-01T21:21:38;95957.00;;;11.67;55.67
39411;BME280;26579;43.238;23.124;2023-04-01T21:24:28;95940.00;;;11.55;54.50
39411;BME280;26579;43.238;23.124;2023-04-01T22:05:39;95955.94;;;11.52;50.97
39411;BME280;26579;43.238;23.124;2023-04-01T22:13:49;95955.09;;;11.51;50.82
39411;BME280;26579;43.238;23.124;2023-04-01T22:19:16;95960.00;;;11.54;54.88
39411;BME280;26579;43.238;23.124;2023-04-01T22:27:15;95958.66;;;11.42;52.46
39411;BME280;26579;43.238;23.124;2023-04-01T22:29:56;95969.38;;;11.39;51.05
39411;BME280;26579;43.238;23.124;2023-04-01T22:32:32;95964.22;;;11.47;48.63
39411;BME280;26579;43.238;23.124;2023-04-01T22:43:10;95967.44;;;11.67;48.82
39411;BME280;26579;43.238;23.124;2023-04-01T22:48:30;95969.72;;;11.70;47.24
39411;BME280;26579;43.238;23.124;2023-04-01T22:56:18;95965.56;;;11.86;49.21
39411;BME280;26579;43.238;23.124;2023-04-01T22:58:52;95961.69;;;11.90;50.06
39411;BME280;26579;43.238;23.124;2023-04-01T23:01:22;95960.84;;;11.89;49.55
39411;BME280;26579;43.238;23.124;2023-04-01T23:03:51;95967.66;;;11.82;50.88
39411;BME280;26579;43.238;23.124;2023-04-01T23:06:24;95970.72;;;11.77;50.20
39411;BME280;26579;43.238;23.124;2023-04-01T23:08:59;95974.00;;;11.79;47.17
39411;BME280;26579;43.238;23.124;2023-04-01T23:11:47;95967.47;;;11.75;48.16
39411;BME280;26579;43.238;23.124;2023-04-01T23:17:00;95975.25;;;11.67;50.05
39411;BME280;26579;43.238;23.124;2023-04-01T23:19:41;95985.19;;;11.72;49.70
39411;BME280;26579;43.238;23.124;2023-04-01T23:22:35;95980.47;;;11.67;49.54
39411;BME280;26579;43.238;23.124;2023-04-01T23:25:27;95964.31;;;11.64;49.25
39411;BME280;26579;43.238;23.124;2023-04-01T23:35:55;95975.06;;;11.35;51.77
39411;BME280;26579;43.238;23.124;2023-04-01T23:38:25;95974.53;;;11.31;52.36
39411;BME280;26579;43.238;23.124;2023-04-01T23:40:53;95966.84;;;11.21;54.74
39411;BME280;26579;43.238;23.124;2023-04-01T23:44:00;95974.16;;;11.18;53.63
39411;BME280;26579;43.238;23.124;2023-04-01T23:46:18;95970.25;;;11.22;45.87
39411;BME280;26579;43.238;23.124;2023-04-01T23:48:46;95970.69;;;11.35;48.97
39411;BME280;26579;43.238;23.124;2023-04-01T23:51:20;95978.63;;;11.33;50.41
39411;BME280;26579;43.238;23.124;2023-04-01T23:53:46;95973.53;;;11.24;51.29
39411;BME280;26579;43.238;23.124;2023-04-01T23:56:16;95969.63;;;11.28;50.34
39411;BME280;26579;43.238;23.124;2023-04-01T23:58:46;95973.53;;;11.24;51.06
